Absarokee, Montana
Current Conditions -  °F | °C
As of 9:53 AM on Sunday 23 Nov 2014 (Local Time) from KBIL Reporting Station
Few Clouds Few Clouds  
Wind Chill: 29°   Ceiling: Unl
Heat Index: 38°   Visibility: 10mi
Dew Point: 20°   Wind: 16mph
Humidity: 48%   Direction: 290°WNW
Pressure: 29.91"   Gusts: NA
Location:  45.53°N, 109.43°W
Report Text: KBIL 231653Z 29014KT 10SM FEW070 FEW200 03/M07 A2991 RMK AO2 SLP145 T00331067 $
Loading
Personal Weather Stations






























Interactive Weather Map New forecast layout! Learn more

10-Day Weather Forecast

Advertisements
Track Severe Weather on mobile